Terminal Aerodrome Forecast
Issued by NWS Huntsville, AL

Home | Current Version | Previous Version | Text Only | Print | Product List | Glossary On
Versions: 1 2 3 4 5 6 7 8 9 10 11 12 13 14
000
FTUS44 KHUN 300520
TAFMSL
TAF
KMSL 300520Z 3006/0106 18012KT P6SM SCT060 BKN250 WS020/18040KT
     FM301200 16015KT P6SM OVC025
     FM301500 17020G30KT P6SM BKN050
     FM302100 19020G30KT P6SM SHRA OVC050
      TEMPO 3022/0102 3SM TSRA OVC030CB=

USA.gov is the U.S. government's official web portal to all federal, state and local government web resources and services.